sensor_id;sensor_type;location;lat;lon;timestamp;pressure;altitude;pressure_sealevel;temperature;humidity
41684;BME280;27369;52.030;4.586;2023-07-09T00:00:19;-20807.34;;;-144.41;100.00
41684;BME280;27369;52.030;4.586;2023-07-09T00:02:44;-20807.34;;;-144.41;100.00
41684;BME280;27369;52.030;4.586;2023-07-09T00:05:15;-20807.34;;;-144.41;100.00
41684;BME280;27369;52.030;4.586;2023-07-09T00:07:42;-20807.34;;;-144.41;100.00
41684;BME280;27369;52.030;4.586;2023-07-09T00:10:20;-20807.34;;;-144.41;100.00
41684;BME280;27369;52.030;4.586;2023-07-09T00:12:46;-20807.34;;;-144.41;100.00
41684;BME280;27369;52.030;4.586;2023-07-09T00:15:13;-20807.34;;;-144.41;100.00
41684;BME280;27369;52.030;4.586;2023-07-09T00:17:41;-20807.34;;;-144.41;100.00
41684;BME280;27369;52.030;4.586;2023-07-09T00:20:12;-20807.34;;;-144.41;100.00
41684;BME280;27369;52.030;4.586;2023-07-09T00:22:42;-20807.34;;;-144.41;100.00
41684;BME280;27369;52.030;4.586;2023-07-09T00:25:13;-20807.34;;;-144.41;100.00
41684;BME280;27369;52.030;4.586;2023-07-09T00:27:42;-20807.34;;;-144.41;100.00
41684;BME280;27369;52.030;4.586;2023-07-09T00:30:19;-20807.34;;;-144.41;100.00
41684;BME280;27369;52.030;4.586;2023-07-09T00:32:45;-20807.34;;;-144.41;100.00
41684;BME280;27369;52.030;4.586;2023-07-09T00:35:13;-20807.34;;;-144.41;100.00
41684;BME280;27369;52.030;4.586;2023-07-09T00:37:42;-20807.34;;;-144.41;100.00
41684;BME280;27369;52.030;4.586;2023-07-09T00:40:28;-20807.34;;;-144.41;100.00
41684;BME280;27369;52.030;4.586;2023-07-09T00:42:54;-20807.34;;;-144.41;100.00
41684;BME280;27369;52.030;4.586;2023-07-09T00:45:23;-20807.34;;;-144.41;100.00
41684;BME280;27369;52.030;4.586;2023-07-09T00:48:04;-20807.34;;;-144.41;100.00
41684;BME280;27369;52.030;4.586;2023-07-09T00:53:25;-20807.34;;;-144.41;100.00
41684;BME280;27369;52.030;4.586;2023-07-09T00:56:10;-20807.34;;;-144.41;100.00
41684;BME280;27369;52.030;4.586;2023-07-09T00:58:38;-20807.34;;;-144.41;100.00
41684;BME280;27369;52.030;4.586;2023-07-09T01:01:08;-20807.34;;;-144.41;100.00
41684;BME280;27369;52.030;4.586;2023-07-09T01:03:42;-20807.34;;;-144.41;100.00
41684;BME280;27369;52.030;4.586;2023-07-09T01:06:10;-20807.34;;;-144.41;100.00
41684;BME280;27369;52.030;4.586;2023-07-09T01:08:37;-20807.34;;;-144.41;100.00
41684;BME280;27369;52.030;4.586;2023-07-09T01:11:15;-20807.34;;;-144.41;100.00
41684;BME280;27369;52.030;4.586;2023-07-09T01:13:40;-20807.34;;;-144.41;100.00
41684;BME280;27369;52.030;4.586;2023-07-09T01:16:09;-20807.34;;;-144.41;100.00
41684;BME280;27369;52.030;4.586;2023-07-09T01:18:35;-20807.34;;;-144.41;100.00
41684;BME280;27369;52.030;4.586;2023-07-09T01:21:09;-20807.34;;;-144.41;100.00
41684;BME280;27369;52.030;4.586;2023-07-09T01:23:44;-20807.34;;;-144.41;100.00
41684;BME280;27369;52.030;4.586;2023-07-09T01:26:15;-20807.34;;;-144.41;100.00
41684;BME280;27369;52.030;4.586;2023-07-09T01:28:42;-20807.34;;;-144.41;100.00
41684;BME280;27369;52.030;4.586;2023-07-09T01:31:09;-20807.34;;;-144.41;100.00
41684;BME280;27369;52.030;4.586;2023-07-09T01:33:35;-20807.34;;;-144.41;100.00
41684;BME280;27369;52.030;4.586;2023-07-09T01:36:01;-20807.34;;;-144.41;100.00
41684;BME280;27369;52.030;4.586;2023-07-09T01:38:26;-20807.34;;;-144.41;100.00
41684;BME280;27369;52.030;4.586;2023-07-09T01:40:56;-20807.34;;;-144.41;100.00
41684;BME280;27369;52.030;4.586;2023-07-09T01:43:23;-20807.34;;;-144.41;100.00
41684;BME280;27369;52.030;4.586;2023-07-09T01:45:50;-20807.34;;;-144.41;100.00
41684;BME280;27369;52.030;4.586;2023-07-09T01:48:17;-20807.34;;;-144.41;100.00
41684;BME280;27369;52.030;4.586;2023-07-09T01:50:43;-20807.34;;;-144.41;100.00
41684;BME280;27369;52.030;4.586;2023-07-09T01:53:13;-20807.34;;;-144.41;100.00
41684;BME280;27369;52.030;4.586;2023-07-09T01:55:39;-20807.34;;;-144.41;100.00
41684;BME280;27369;52.030;4.586;2023-07-09T01:58:05;-20807.34;;;-144.41;100.00
41684;BME280;27369;52.030;4.586;2023-07-09T02:00:33;-20807.34;;;-144.41;100.00
41684;BME280;27369;52.030;4.586;2023-07-09T02:03:02;-20807.34;;;-144.41;100.00
41684;BME280;27369;52.030;4.586;2023-07-09T02:05:31;-20807.34;;;-144.41;100.00
41684;BME280;27369;52.030;4.586;2023-07-09T02:07:56;-20807.34;;;-144.41;100.00
41684;BME280;27369;52.030;4.586;2023-07-09T02:10:22;-20807.34;;;-144.41;100.00
41684;BME280;27369;52.030;4.586;2023-07-09T02:12:47;-20807.34;;;-144.41;100.00
41684;BME280;27369;52.030;4.586;2023-07-09T02:15:13;-20807.34;;;-144.41;100.00
41684;BME280;27369;52.030;4.586;2023-07-09T02:17:39;-20807.34;;;-144.41;100.00
41684;BME280;27369;52.030;4.586;2023-07-09T02:20:05;-20807.34;;;-144.41;100.00
41684;BME280;27369;52.030;4.586;2023-07-09T02:22:33;-20807.34;;;-144.41;100.00
41684;BME280;27369;52.030;4.586;2023-07-09T02:24:58;-20807.34;;;-144.41;100.00
41684;BME280;27369;52.030;4.586;2023-07-09T02:27:24;-20807.34;;;-144.41;100.00
41684;BME280;27369;52.030;4.586;2023-07-09T02:29:49;-20807.34;;;-144.41;100.00
41684;BME280;27369;52.030;4.586;2023-07-09T02:32:21;-20807.34;;;-144.41;100.00
41684;BME280;27369;52.030;4.586;2023-07-09T02:34:48;-20807.34;;;-144.41;100.00
41684;BME280;27369;52.030;4.586;2023-07-09T02:37:15;-20807.34;;;-144.41;100.00
41684;BME280;27369;52.030;4.586;2023-07-09T02:39:42;-20807.34;;;-144.41;100.00
41684;BME280;27369;52.030;4.586;2023-07-09T02:42:12;-20807.34;;;-144.41;100.00
41684;BME280;27369;52.030;4.586;2023-07-09T02:44:39;-20807.34;;;-144.41;100.00
41684;BME280;27369;52.030;4.586;2023-07-09T02:47:05;-20807.34;;;-144.41;100.00
41684;BME280;27369;52.030;4.586;2023-07-09T02:49:30;-20807.34;;;-144.41;100.00
41684;BME280;27369;52.030;4.586;2023-07-09T02:51:56;-20807.34;;;-144.41;100.00
41684;BME280;27369;52.030;4.586;2023-07-09T02:54:21;-20807.34;;;-144.41;100.00
41684;BME280;27369;52.030;4.586;2023-07-09T02:56:47;-20807.34;;;-144.41;100.00
41684;BME280;27369;52.030;4.586;2023-07-09T02:59:12;-20807.34;;;-144.41;100.00
41684;BME280;27369;52.030;4.586;2023-07-09T03:01:37;-20807.34;;;-144.41;100.00
41684;BME280;27369;52.030;4.586;2023-07-09T03:04:03;-20807.34;;;-144.41;100.00
41684;BME280;27369;52.030;4.586;2023-07-09T03:06:29;-20807.34;;;-144.41;100.00
41684;BME280;27369;52.030;4.586;2023-07-09T03:08:58;-20807.34;;;-144.41;100.00
41684;BME280;27369;52.030;4.586;2023-07-09T03:11:23;-20807.34;;;-144.41;100.00
41684;BME280;27369;52.030;4.586;2023-07-09T03:13:49;-20807.34;;;-144.41;100.00
41684;BME280;27369;52.030;4.586;2023-07-09T03:16:14;-20807.34;;;-144.41;100.00
41684;BME280;27369;52.030;4.586;2023-07-09T03:18:40;-20807.34;;;-144.41;100.00
41684;BME280;27369;52.030;4.586;2023-07-09T03:21:05;-20807.34;;;-144.41;100.00
41684;BME280;27369;52.030;4.586;2023-07-09T03:23:31;-20807.34;;;-144.41;100.00
41684;BME280;27369;52.030;4.586;2023-07-09T03:25:56;-20807.34;;;-144.41;100.00
41684;BME280;27369;52.030;4.586;2023-07-09T03:28:23;-20807.34;;;-144.41;100.00
41684;BME280;27369;52.030;4.586;2023-07-09T03:30:49;-20807.34;;;-144.41;100.00
41684;BME280;27369;52.030;4.586;2023-07-09T03:33:16;-20807.34;;;-144.41;100.00
41684;BME280;27369;52.030;4.586;2023-07-09T03:35:42;-20807.34;;;-144.41;100.00
41684;BME280;27369;52.030;4.586;2023-07-09T03:38:08;-20807.34;;;-144.41;100.00
41684;BME280;27369;52.030;4.586;2023-07-09T03:40:34;-20807.34;;;-144.41;100.00
41684;BME280;27369;52.030;4.586;2023-07-09T03:42:59;-20807.34;;;-144.41;100.00
41684;BME280;27369;52.030;4.586;2023-07-09T03:45:25;-20807.34;;;-144.41;100.00
41684;BME280;27369;52.030;4.586;2023-07-09T03:47:51;-20807.34;;;-144.41;100.00
41684;BME280;27369;52.030;4.586;2023-07-09T03:50:16;-20807.34;;;-144.41;100.00
41684;BME280;27369;52.030;4.586;2023-07-09T03:52:42;-20807.34;;;-144.41;100.00
41684;BME280;27369;52.030;4.586;2023-07-09T03:55:07;-20807.34;;;-144.41;100.00
41684;BME280;27369;52.030;4.586;2023-07-09T03:57:33;-20807.34;;;-144.41;100.00
41684;BME280;27369;52.030;4.586;2023-07-09T03:59:59;-20807.34;;;-144.41;100.00
41684;BME280;27369;52.030;4.586;2023-07-09T04:02:25;-20807.34;;;-144.41;100.00
41684;BME280;27369;52.030;4.586;2023-07-09T04:04:50;-20807.34;;;-144.41;100.00
41684;BME280;27369;52.030;4.586;2023-07-09T04:07:16;-20807.34;;;-144.41;100.00
41684;BME280;27369;52.030;4.586;2023-07-09T04:09:41;-20807.34;;;-144.41;100.00
41684;BME280;27369;52.030;4.586;2023-07-09T04:12:07;-20807.34;;;-144.41;100.00
41684;BME280;27369;52.030;4.586;2023-07-09T04:14:32;-20807.34;;;-144.41;100.00
41684;BME280;27369;52.030;4.586;2023-07-09T04:16:58;-20807.34;;;-144.41;100.00
41684;BME280;27369;52.030;4.586;2023-07-09T04:19:23;-20807.34;;;-144.41;100.00
41684;BME280;27369;52.030;4.586;2023-07-09T04:21:49;-20807.34;;;-144.41;100.00
41684;BME280;27369;52.030;4.586;2023-07-09T04:24:16;-20807.34;;;-144.41;100.00
41684;BME280;27369;52.030;4.586;2023-07-09T04:26:42;-20807.34;;;-144.41;100.00
41684;BME280;27369;52.030;4.586;2023-07-09T04:29:08;-20807.34;;;-144.41;100.00
41684;BME280;27369;52.030;4.586;2023-07-09T04:31:33;-20807.34;;;-144.41;100.00
41684;BME280;27369;52.030;4.586;2023-07-09T04:33:58;-20807.34;;;-144.41;100.00
41684;BME280;27369;52.030;4.586;2023-07-09T04:36:24;-20807.34;;;-144.41;100.00
41684;BME280;27369;52.030;4.586;2023-07-09T04:38:51;-20807.34;;;-144.41;100.00
41684;BME280;27369;52.030;4.586;2023-07-09T04:41:16;-20807.34;;;-144.41;100.00
41684;BME280;27369;52.030;4.586;2023-07-09T04:43:42;-20807.34;;;-144.41;100.00
41684;BME280;27369;52.030;4.586;2023-07-09T04:46:07;-20807.34;;;-144.41;100.00
41684;BME280;27369;52.030;4.586;2023-07-09T04:48:32;-20807.34;;;-144.41;100.00
41684;BME280;27369;52.030;4.586;2023-07-09T04:50:58;-20807.34;;;-144.41;100.00
41684;BME280;27369;52.030;4.586;2023-07-09T04:53:25;-20807.34;;;-144.41;100.00
41684;BME280;27369;52.030;4.586;2023-07-09T04:55:50;-20807.34;;;-144.41;100.00
41684;BME280;27369;52.030;4.586;2023-07-09T04:58:16;-20807.34;;;-144.41;100.00
41684;BME280;27369;52.030;4.586;2023-07-09T05:00:42;-20807.34;;;-144.41;100.00
41684;BME280;27369;52.030;4.586;2023-07-09T05:03:08;-20807.34;;;-144.41;100.00
41684;BME280;27369;52.030;4.586;2023-07-09T05:05:33;-20807.34;;;-144.41;100.00
41684;BME280;27369;52.030;4.586;2023-07-09T05:07:59;-20807.34;;;-144.41;100.00
41684;BME280;27369;52.030;4.586;2023-07-09T05:10:25;-20807.34;;;-144.41;100.00
41684;BME280;27369;52.030;4.586;2023-07-09T05:12:52;-20807.34;;;-144.41;100.00
41684;BME280;27369;52.030;4.586;2023-07-09T05:15:19;-20807.34;;;-144.41;100.00
41684;BME280;27369;52.030;4.586;2023-07-09T05:17:45;-20807.34;;;-144.41;100.00
41684;BME280;27369;52.030;4.586;2023-07-09T05:20:11;-20807.34;;;-144.41;100.00
41684;BME280;27369;52.030;4.586;2023-07-09T05:22:36;-20807.34;;;-144.41;100.00
41684;BME280;27369;52.030;4.586;2023-07-09T05:25:02;-20807.34;;;-144.41;100.00
41684;BME280;27369;52.030;4.586;2023-07-09T05:27:27;-20807.34;;;-144.41;100.00
41684;BME280;27369;52.030;4.586;2023-07-09T05:29:53;-20807.34;;;-144.41;100.00
41684;BME280;27369;52.030;4.586;2023-07-09T05:32:18;-20807.34;;;-144.41;100.00
41684;BME280;27369;52.030;4.586;2023-07-09T05:34:43;-20807.34;;;-144.41;100.00
41684;BME280;27369;52.030;4.586;2023-07-09T05:37:09;-20807.34;;;-144.41;100.00
41684;BME280;27369;52.030;4.586;2023-07-09T05:39:34;-20807.34;;;-144.41;100.00
41684;BME280;27369;52.030;4.586;2023-07-09T05:42:00;-20807.34;;;-144.41;100.00
41684;BME280;27369;52.030;4.586;2023-07-09T05:44:25;-20807.34;;;-144.41;100.00
41684;BME280;27369;52.030;4.586;2023-07-09T05:46:50;-20807.34;;;-144.41;100.00
41684;BME280;27369;52.030;4.586;2023-07-09T05:49:17;-20807.34;;;-144.41;100.00
41684;BME280;27369;52.030;4.586;2023-07-09T05:51:43;-20807.34;;;-144.41;100.00
41684;BME280;27369;52.030;4.586;2023-07-09T05:54:08;-20807.34;;;-144.41;100.00
41684;BME280;27369;52.030;4.586;2023-07-09T05:56:34;-20807.34;;;-144.41;100.00
41684;BME280;27369;52.030;4.586;2023-07-09T05:58:59;-20807.34;;;-144.41;100.00
41684;BME280;27369;52.030;4.586;2023-07-09T06:01:25;-20807.34;;;-144.41;100.00
41684;BME280;27369;52.030;4.586;2023-07-09T06:03:51;-20807.34;;;-144.41;100.00
41684;BME280;27369;52.030;4.586;2023-07-09T06:06:17;-20807.34;;;-144.41;100.00
41684;BME280;27369;52.030;4.586;2023-07-09T06:08:42;-20807.34;;;-144.41;100.00
41684;BME280;27369;52.030;4.586;2023-07-09T06:11:08;-20807.34;;;-144.41;100.00
41684;BME280;27369;52.030;4.586;2023-07-09T06:13:34;-20807.34;;;-144.41;100.00
41684;BME280;27369;52.030;4.586;2023-07-09T06:16:00;-20807.34;;;-144.41;100.00
41684;BME280;27369;52.030;4.586;2023-07-09T06:18:26;-20807.34;;;-144.41;100.00
41684;BME280;27369;52.030;4.586;2023-07-09T06:20:58;-20807.34;;;-144.41;100.00
41684;BME280;27369;52.030;4.586;2023-07-09T06:23:24;-20807.34;;;-144.41;100.00
41684;BME280;27369;52.030;4.586;2023-07-09T06:25:49;-20807.34;;;-144.41;100.00
41684;BME280;27369;52.030;4.586;2023-07-09T06:28:18;-20807.34;;;-144.41;100.00
41684;BME280;27369;52.030;4.586;2023-07-09T06:30:44;-20807.34;;;-144.41;100.00
41684;BME280;27369;52.030;4.586;2023-07-09T06:33:11;-20807.34;;;-144.41;100.00
41684;BME280;27369;52.030;4.586;2023-07-09T06:35:38;-19313.44;;;-144.41;100.00
41684;BME280;27369;52.030;4.586;2023-07-09T06:38:05;-15828.84;;;-144.41;100.00
41684;BME280;27369;52.030;4.586;2023-07-09T06:40:31;-20807.34;;;-144.41;100.00
41684;BME280;27369;52.030;4.586;2023-07-09T06:42:56;-20807.34;;;-144.41;100.00
41684;BME280;27369;52.030;4.586;2023-07-09T06:45:23;-20807.34;;;-144.41;100.00
41684;BME280;27369;52.030;4.586;2023-07-09T06:47:49;-20807.34;;;-144.41;100.00
41684;BME280;27369;52.030;4.586;2023-07-09T06:50:14;-20807.34;;;-144.41;100.00
41684;BME280;27369;52.030;4.586;2023-07-09T06:52:40;-20807.34;;;-144.41;100.00
41684;BME280;27369;52.030;4.586;2023-07-09T06:55:06;-20807.34;;;-144.41;100.00
41684;BME280;27369;52.030;4.586;2023-07-09T06:57:31;-16077.84;;;-144.41;100.00
41684;BME280;27369;52.030;4.586;2023-07-09T06:59:57;-5106.28;;;-144.41;100.00
41684;BME280;27369;52.030;4.586;2023-07-09T07:02:22;2392.34;;;-144.41;100.00
41684;BME280;27369;52.030;4.586;2023-07-09T07:04:48;8401.78;;;-144.41;100.00
41684;BME280;27369;52.030;4.586;2023-07-09T07:07:13;24472.59;;;-144.41;100.00
41684;BME280;27369;52.030;4.586;2023-07-09T07:09:38;44907.50;;;-144.41;100.00
41684;BME280;27369;52.030;4.586;2023-07-09T07:12:04;71555.63;;;-144.41;100.00
41684;BME280;27369;52.030;4.586;2023-07-09T07:14:30;48956.59;;;-144.41;100.00
41684;BME280;27369;52.030;4.586;2023-07-09T07:16:56;48197.09;;;-144.41;100.00
41684;BME280;27369;52.030;4.586;2023-07-09T07:19:23;51742.78;;;-144.41;100.00
41684;BME280;27369;52.030;4.586;2023-07-09T07:21:48;80222.91;;;-144.41;100.00
41684;BME280;27369;52.030;4.586;2023-07-09T07:24:13;69519.00;;;-144.41;100.00
41684;BME280;27369;52.030;4.586;2023-07-09T07:26:39;108647.53;;;-144.41;100.00
41684;BME280;27369;52.030;4.586;2023-07-09T07:29:04;108131.56;;;-144.41;100.00
41684;BME280;27369;52.030;4.586;2023-07-09T07:31:30;106333.22;;;-144.41;100.00
41684;BME280;27369;52.030;4.586;2023-07-09T07:33:55;104254.88;;;-144.41;100.00
41684;BME280;27369;52.030;4.586;2023-07-09T07:36:21;79457.38;;;-144.41;100.00
41684;BME280;27369;52.030;4.586;2023-07-09T07:38:46;73593.31;;;-144.41;100.00
41684;BME280;27369;52.030;4.586;2023-07-09T07:41:12;60620.97;;;-144.41;100.00
41684;BME280;27369;52.030;4.586;2023-07-09T07:43:37;40357.19;;;-144.41;100.00
41684;BME280;27369;52.030;4.586;2023-07-09T07:46:03;-2358.47;;;-144.41;100.00
41684;BME280;27369;52.030;4.586;2023-07-09T07:48:28;-5855.34;;;-144.41;100.00
41684;BME280;27369;52.030;4.586;2023-07-09T07:51:01;-9847.88;;;-144.41;100.00
41684;BME280;27369;52.030;4.586;2023-07-09T07:53:28;-11593.28;;;-144.41;100.00
41684;BME280;27369;52.030;4.586;2023-07-09T07:55:55;-13836.22;;;-144.41;100.00
41684;BME280;27369;52.030;4.586;2023-07-09T07:58:21;-13836.22;;;-144.41;100.00
41684;BME280;27369;52.030;4.586;2023-07-09T08:00:47;-15081.75;;;-144.41;100.00
41684;BME280;27369;52.030;4.586;2023-07-09T08:03:12;-17571.56;;;-144.41;100.00
41684;BME280;27369;52.030;4.586;2023-07-09T08:05:38;-18815.84;;;-144.41;100.00
41684;BME280;27369;52.030;4.586;2023-07-09T08:08:03;-19562.22;;;-144.41;100.00
41684;BME280;27369;52.030;4.586;2023-07-09T08:10:29;-17571.56;;;-144.41;100.00
41684;BME280;27369;52.030;4.586;2023-07-09T08:12:54;-13337.91;;;-144.41;100.00
41684;BME280;27369;52.030;4.586;2023-07-09T08:15:23;-6604.25;;;-144.41;100.00
41684;BME280;27369;52.030;4.586;2023-07-09T08:17:48;20951.41;;;-144.41;100.00
41684;BME280;27369;52.030;4.586;2023-07-09T08:20:14;20700.03;;;-144.41;100.00
41684;BME280;27369;52.030;4.586;2023-07-09T08:22:39;22711.59;;;-144.41;100.00
41684;BME280;27369;52.030;4.586;2023-07-09T08:25:06;23969.38;;;-144.41;100.00
41684;BME280;27369;52.030;4.586;2023-07-09T08:27:31;22208.59;;;-144.41;100.00
41684;BME280;27369;52.030;4.586;2023-07-09T08:29:57;23214.66;;;-144.41;100.00
41684;BME280;27369;52.030;4.586;2023-07-09T08:32:22;30264.25;;;-144.41;100.00
41684;BME280;27369;52.030;4.586;2023-07-09T08:34:48;32532.91;;;-144.41;100.00
41684;BME280;27369;52.030;4.586;2023-07-09T08:37:13;30264.25;;;-144.41;100.00
41684;BME280;27369;52.030;4.586;2023-07-09T08:39:39;32785.06;;;-144.41;100.00
41684;BME280;27369;52.030;4.586;2023-07-09T08:42:06;37326.59;;;-144.41;100.00
41684;BME280;27369;52.030;4.586;2023-07-09T08:50:27;56306.22;;;-144.41;100.00
41684;BME280;27369;52.030;4.586;2023-07-09T08:52:51;66720.34;;;-144.41;100.00
41684;BME280;27369;52.030;4.586;2023-07-09T08:55:23;62653.03;;;-144.41;100.00
41684;BME280;27369;52.030;4.586;2023-07-09T08:57:57;44401.66;;;-144.41;100.00
41684;BME280;27369;52.030;4.586;2023-07-09T09:00:34;47437.69;;;-144.41;100.00
41684;BME280;27369;52.030;4.586;2023-07-09T09:03:07;41115.22;;;-144.41;100.00
41684;BME280;27369;52.030;4.586;2023-07-09T09:05:36;41620.66;;;-144.41;100.00
41684;BME280;27369;52.030;4.586;2023-07-09T09:13:52;13667.69;;;-144.41;100.00
41684;BME280;27369;52.030;4.586;2023-07-09T09:16:28;11911.59;;;-144.41;100.00
41684;BME280;27369;52.030;4.586;2023-07-09T09:18:58;8401.78;;;-144.41;100.00
41684;BME280;27369;52.030;4.586;2023-07-09T09:21:34;16177.78;;;-144.41;100.00
41684;BME280;27369;52.030;4.586;2023-07-09T09:24:19;18438.25;;;-144.41;100.00
41684;BME280;27369;52.030;4.586;2023-07-09T09:26:48;3893.84;;;-144.41;100.00
41684;BME280;27369;52.030;4.586;2023-07-09T09:29:16;-5605.66;;;-144.41;100.00
41684;BME280;27369;52.030;4.586;2023-07-09T09:31:45;-6853.88;;;-144.41;100.00
41684;BME280;27369;52.030;4.586;2023-07-09T09:34:23;-5356.00;;;-144.41;100.00
41684;BME280;27369;52.030;4.586;2023-07-09T09:36:50;-5106.28;;;-144.41;100.00
41684;BME280;27369;52.030;4.586;2023-07-09T09:39:16;-5855.34;;;-144.41;100.00
41684;BME280;27369;52.030;4.586;2023-07-09T09:41:44;-6105.00;;;-144.41;100.00
41684;BME280;27369;52.030;4.586;2023-07-09T09:44:24;-6105.00;;;-144.41;100.00
41684;BME280;27369;52.030;4.586;2023-07-09T09:46:50;-5855.34;;;-144.41;100.00
41684;BME280;27369;52.030;4.586;2023-07-09T09:49:16;-6853.88;;;-144.41;100.00
41684;BME280;27369;52.030;4.586;2023-07-09T09:51:45;-6105.00;;;-144.41;100.00
41684;BME280;27369;52.030;4.586;2023-07-09T09:54:26;-8351.16;;;-144.41;100.00
41684;BME280;27369;52.030;4.586;2023-07-09T09:56:53;-6604.25;;;-144.41;100.00
41684;BME280;27369;52.030;4.586;2023-07-09T09:59:32;-3108.06;;;-144.41;100.00
41684;BME280;27369;52.030;4.586;2023-07-09T10:02:11;-4606.81;;;-144.41;100.00
41684;BME280;27369;52.030;4.586;2023-07-09T10:04:39;-3108.06;;;-144.41;100.00
41684;BME280;27369;52.030;4.586;2023-07-09T10:07:07;-2358.47;;;-144.41;100.00
41684;BME280;27369;52.030;4.586;2023-07-09T10:09:53;-858.84;;;-144.41;100.00
41684;BME280;27369;52.030;4.586;2023-07-09T10:12:36;-4357.06;;;-144.41;100.00
41684;BME280;27369;52.030;4.586;2023-07-09T10:20:30;-5855.34;;;-144.41;100.00
41684;BME280;27369;52.030;4.586;2023-07-09T10:23:35;-4357.06;;;-144.41;100.00
41684;BME280;27369;52.030;4.586;2023-07-09T10:34:57;2142.16;;;-144.41;100.00
41684;BME280;27369;52.030;4.586;2023-07-09T10:39:57;6648.06;;;-144.41;100.00
41684;BME280;27369;52.030;4.586;2023-07-09T10:42:30;6397.59;;;-144.41;100.00
41684;BME280;27369;52.030;4.586;2023-07-09T10:45:02;10156.28;;;-144.41;100.00
41684;BME280;27369;52.030;4.586;2023-07-09T10:47:32;10908.44;;;-144.41;100.00
41684;BME280;27369;52.030;4.586;2023-07-09T10:50:02;11660.78;;;-144.41;100.00
41684;BME280;27369;52.030;4.586;2023-07-09T10:52:35;10657.72;;;-144.41;100.00
41684;BME280;27369;52.030;4.586;2023-07-09T10:55:26;6397.59;;;-144.41;100.00
41684;BME280;27369;52.030;4.586;2023-07-09T10:58:02;5395.91;;;-144.41;100.00
41684;BME280;27369;52.030;4.586;2023-07-09T11:00:39;6397.59;;;-144.41;100.00
41684;BME280;27369;52.030;4.586;2023-07-09T11:03:13;13918.63;;;-144.41;100.00
41684;BME280;27369;52.030;4.586;2023-07-09T11:05:41;15299.06;;;-144.41;100.00
41684;BME280;27369;52.030;4.586;2023-07-09T11:08:12;13667.69;;;-144.41;100.00
41684;BME280;27369;52.030;4.586;2023-07-09T11:10:46;16940.94;;;-144.41;100.00
41684;BME280;27369;52.030;4.586;2023-07-09T11:13:24;17765.06;;;-144.41;100.00
41684;BME280;27369;52.030;4.586;2023-07-09T11:15:50;14922.53;;;-144.41;100.00
41684;BME280;27369;52.030;4.586;2023-07-09T11:18:25;11159.22;;;-144.41;100.00
41684;BME280;27369;52.030;4.586;2023-07-09T11:21:07;11410.00;;;-144.41;100.00
41684;BME280;27369;52.030;4.586;2023-07-09T11:23:49;16422.97;;;-144.41;100.00
41684;BME280;27369;52.030;4.586;2023-07-09T11:26:31;20032.34;;;-144.41;100.00
41684;BME280;27369;52.030;4.586;2023-07-09T11:31:38;15814.88;;;-144.41;100.00
41684;BME280;27369;52.030;4.586;2023-07-09T11:36:32;11660.78;;;-144.41;100.00
41684;BME280;27369;52.030;4.586;2023-07-09T11:38:58;18734.63;;;-144.41;100.00
41684;BME280;27369;52.030;4.586;2023-07-09T11:41:44;19781.00;;;-144.41;100.00
41684;BME280;27369;52.030;4.586;2023-07-09T11:44:20;17205.81;;;-144.41;100.00
41684;BME280;27369;52.030;4.586;2023-07-09T11:49:34;19180.25;;;-144.41;100.00
41684;BME280;27369;52.030;4.586;2023-07-09T11:52:04;19625.91;;;-144.41;100.00
41684;BME280;27369;52.030;4.586;2023-07-09T11:54:37;17154.78;;;-144.41;100.00
41684;BME280;27369;52.030;4.586;2023-07-09T11:57:05;16020.84;;;-144.41;100.00
41684;BME280;27369;52.030;4.586;2023-07-09T11:59:40;10156.28;;;-144.41;100.00
41684;BME280;27369;52.030;4.586;2023-07-09T12:02:18;6898.53;;;-144.41;100.00
41684;BME280;27369;52.030;4.586;2023-07-09T12:04:48;6147.16;;;-144.41;100.00
41684;BME280;27369;52.030;4.586;2023-07-09T12:07:16;7149.03;;;-144.41;100.00
41684;BME280;27369;52.030;4.586;2023-07-09T12:09:46;8401.78;;;-144.41;100.00
41684;BME280;27369;52.030;4.586;2023-07-09T12:12:25;7149.03;;;-144.41;100.00
41684;BME280;27369;52.030;4.586;2023-07-09T12:14:51;5145.50;;;-144.41;100.00
41684;BME280;27369;52.030;4.586;2023-07-09T12:17:17;3893.84;;;-144.41;100.00
41684;BME280;27369;52.030;4.586;2023-07-09T12:19:44;1641.84;;;-144.41;100.00
41684;BME280;27369;52.030;4.586;2023-07-09T12:22:16;-1608.75;;;-144.41;100.00
41684;BME280;27369;52.030;4.586;2023-07-09T12:24:44;-1608.75;;;-144.41;100.00
41684;BME280;27369;52.030;4.586;2023-07-09T12:29:46;-2108.59;;;-144.41;100.00
41684;BME280;27369;52.030;4.586;2023-07-09T12:32:16;-9847.88;;;-144.41;100.00
41684;BME280;27369;52.030;4.586;2023-07-09T12:34:46;-12091.84;;;-144.41;100.00
41684;BME280;27369;52.030;4.586;2023-07-09T12:37:14;-9598.44;;;-144.41;100.00
41684;BME280;27369;52.030;4.586;2023-07-09T12:39:40;-12091.84;;;-144.41;100.00
41684;BME280;27369;52.030;4.586;2023-07-09T12:42:15;-14334.47;;;-144.41;100.00
41684;BME280;27369;52.030;4.586;2023-07-09T12:44:41;1892.00;;;-144.41;100.00
41684;BME280;27369;52.030;4.586;2023-07-09T12:47:15;7399.56;;;-144.41;100.00
41684;BME280;27369;52.030;4.586;2023-07-09T12:49:43;3893.84;;;-144.41;100.00
41684;BME280;27369;52.030;4.586;2023-07-09T12:52:14;20197.28;;;-144.41;100.00
41684;BME280;27369;52.030;4.586;2023-07-09T12:54:52;84174.41;;;-144.41;100.00
41684;BME280;27369;52.030;4.586;2023-07-09T12:57:20;71810.28;;;-144.41;100.00
41684;BME280;27369;52.030;4.586;2023-07-09T12:59:46;62144.94;;;-144.41;100.00
41684;BME280;27369;52.030;4.586;2023-07-09T13:02:18;59351.44;;;-144.41;100.00
41684;BME280;27369;52.030;4.586;2023-07-09T13:04:45;59859.19;;;-144.41;100.00
41684;BME280;27369;52.030;4.586;2023-07-09T13:09:55;66720.34;;;-144.41;100.00
41684;BME280;27369;52.030;4.586;2023-07-09T13:12:31;74357.69;;;-144.41;100.00
41684;BME280;27369;52.030;4.586;2023-07-09T13:14:57;72829.06;;;-144.41;100.00